ESOK 250850Z AUTO 19005KT 9999 NCD 00/M02 Q1009